sensor_id;sensor_type;location;lat;lon;timestamp;P1;durP1;ratioP1;P2;durP2;ratioP2
72201;SDS011;60105;54.956;73.412;2022-09-12T00:01:26;4.20;;;2.63;;
72201;SDS011;60105;54.956;73.412;2022-09-12T00:03:53;3.95;;;2.30;;
72201;SDS011;60105;54.956;73.412;2022-09-12T00:06:27;5.50;;;2.28;;
72201;SDS011;60105;54.956;73.412;2022-09-12T00:09:00;3.70;;;2.63;;
72201;SDS011;60105;54.956;73.412;2022-09-12T00:11:29;3.30;;;2.20;;
72201;SDS011;60105;54.956;73.412;2022-09-12T00:13:59;4.22;;;2.55;;
72201;SDS011;60105;54.956;73.412;2022-09-12T00:16:28;6.25;;;2.50;;
72201;SDS011;60105;54.956;73.412;2022-09-12T00:19:06;4.15;;;2.55;;
72201;SDS011;60105;54.956;73.412;2022-09-12T00:21:34;3.30;;;2.15;;
72201;SDS011;60105;54.956;73.412;2022-09-12T00:24:03;3.67;;;2.30;;
72201;SDS011;60105;54.956;73.412;2022-09-12T00:26:30;4.90;;;2.47;;
72201;SDS011;60105;54.956;73.412;2022-09-12T00:28:56;6.30;;;2.90;;
72201;SDS011;60105;54.956;73.412;2022-09-12T00:31:23;3.70;;;2.50;;
72201;SDS011;60105;54.956;73.412;2022-09-12T00:33:54;3.78;;;2.20;;
72201;SDS011;60105;54.956;73.412;2022-09-12T00:36:23;3.70;;;2.70;;
72201;SDS011;60105;54.956;73.412;2022-09-12T00:38:52;3.95;;;2.80;;
72201;SDS011;60105;54.956;73.412;2022-09-12T00:41:34;3.53;;;2.40;;
72201;SDS011;60105;54.956;73.412;2022-09-12T00:51:52;6.55;;;2.65;;
72201;SDS011;60105;54.956;73.412;2022-09-12T00:54:25;4.18;;;2.70;;
72201;SDS011;60105;54.956;73.412;2022-09-12T00:56:57;4.82;;;2.75;;
72201;SDS011;60105;54.956;73.412;2022-09-12T00:59:28;3.70;;;2.63;;
72201;SDS011;60105;54.956;73.412;2022-09-12T01:02:03;4.03;;;2.40;;
72201;SDS011;60105;54.956;73.412;2022-09-12T01:04:30;4.40;;;2.60;;
72201;SDS011;60105;54.956;73.412;2022-09-12T01:06:57;7.03;;;3.03;;
72201;SDS011;60105;54.956;73.412;2022-09-12T01:09:24;7.38;;;3.47;;
72201;SDS011;60105;54.956;73.412;2022-09-12T01:11:52;10.10;;;3.17;;
72201;SDS011;60105;54.956;73.412;2022-09-12T01:14:19;5.73;;;2.87;;
72201;SDS011;60105;54.956;73.412;2022-09-12T01:16:49;5.03;;;3.35;;
72201;SDS011;60105;54.956;73.412;2022-09-12T01:25:23;7.30;;;4.22;;
72201;SDS011;60105;54.956;73.412;2022-09-12T01:31:11;5.88;;;3.55;;
72201;SDS011;60105;54.956;73.412;2022-09-12T01:39:31;6.40;;;3.45;;
72201;SDS011;60105;54.956;73.412;2022-09-12T01:42:26;11.47;;;4.27;;
72201;SDS011;60105;54.956;73.412;2022-09-12T01:50:37;10.60;;;3.95;;
72201;SDS011;60105;54.956;73.412;2022-09-12T01:53:16;9.88;;;3.85;;
72201;SDS011;60105;54.956;73.412;2022-09-12T02:01:17;7.32;;;3.55;;
72201;SDS011;60105;54.956;73.412;2022-09-12T02:03:55;10.52;;;3.15;;
72201;SDS011;60105;54.956;73.412;2022-09-12T02:06:59;7.57;;;3.40;;
72201;SDS011;60105;54.956;73.412;2022-09-12T02:09:35;5.90;;;3.63;;
72201;SDS011;60105;54.956;73.412;2022-09-12T02:12:06;6.63;;;2.88;;
72201;SDS011;60105;54.956;73.412;2022-09-12T02:14:37;5.93;;;3.28;;
72201;SDS011;60105;54.956;73.412;2022-09-12T02:17:13;4.60;;;3.17;;
72201;SDS011;60105;54.956;73.412;2022-09-12T02:19:48;6.40;;;2.88;;
72201;SDS011;60105;54.956;73.412;2022-09-12T02:22:16;7.53;;;3.60;;
72201;SDS011;60105;54.956;73.412;2022-09-12T02:24:58;5.47;;;3.05;;
72201;SDS011;60105;54.956;73.412;2022-09-12T02:30:10;5.95;;;3.40;;
72201;SDS011;60105;54.956;73.412;2022-09-12T02:32:42;6.78;;;2.90;;
72201;SDS011;60105;54.956;73.412;2022-09-12T02:38:09;16.15;;;3.55;;
72201;SDS011;60105;54.956;73.412;2022-09-12T02:40:42;10.38;;;3.90;;
72201;SDS011;60105;54.956;73.412;2022-09-12T02:43:08;8.13;;;3.45;;
72201;SDS011;60105;54.956;73.412;2022-09-12T02:45:35;4.65;;;3.00;;
72201;SDS011;60105;54.956;73.412;2022-09-12T02:48:09;7.23;;;3.07;;
72201;SDS011;60105;54.956;73.412;2022-09-12T02:50:39;8.35;;;3.03;;
72201;SDS011;60105;54.956;73.412;2022-09-12T02:53:06;15.40;;;3.63;;
72201;SDS011;60105;54.956;73.412;2022-09-12T02:55:38;13.27;;;3.20;;
72201;SDS011;60105;54.956;73.412;2022-09-12T02:58:07;7.50;;;3.15;;
72201;SDS011;60105;54.956;73.412;2022-09-12T03:00:47;5.83;;;3.53;;
72201;SDS011;60105;54.956;73.412;2022-09-12T03:05:58;6.82;;;3.50;;
72201;SDS011;60105;54.956;73.412;2022-09-12T03:22:03;6.18;;;2.42;;
72201;SDS011;60105;54.956;73.412;2022-09-12T03:29:34;8.10;;;2.33;;
72201;SDS011;60105;54.956;73.412;2022-09-12T03:32:03;5.25;;;2.75;;
72201;SDS011;60105;54.956;73.412;2022-09-12T03:34:29;9.18;;;2.90;;
72201;SDS011;60105;54.956;73.412;2022-09-12T03:36:55;4.70;;;2.75;;
72201;SDS011;60105;54.956;73.412;2022-09-12T03:39:22;4.73;;;2.87;;
72201;SDS011;60105;54.956;73.412;2022-09-12T03:41:51;5.25;;;3.08;;
72201;SDS011;60105;54.956;73.412;2022-09-12T03:44:28;6.72;;;3.28;;
72201;SDS011;60105;54.956;73.412;2022-09-12T03:46:59;6.63;;;3.15;;
72201;SDS011;60105;54.956;73.412;2022-09-12T03:49:25;6.95;;;3.05;;
72201;SDS011;60105;54.956;73.412;2022-09-12T03:51:57;4.87;;;3.00;;
72201;SDS011;60105;54.956;73.412;2022-09-12T03:54:23;4.25;;;2.55;;
72201;SDS011;60105;54.956;73.412;2022-09-12T03:56:59;4.53;;;2.50;;
72201;SDS011;60105;54.956;73.412;2022-09-12T03:59:25;4.15;;;2.58;;
72201;SDS011;60105;54.956;73.412;2022-09-12T04:01:56;5.15;;;2.50;;
72201;SDS011;60105;54.956;73.412;2022-09-12T04:04:28;4.83;;;2.20;;
72201;SDS011;60105;54.956;73.412;2022-09-12T04:07:04;7.03;;;2.17;;
72201;SDS011;60105;54.956;73.412;2022-09-12T04:09:41;7.00;;;2.25;;
72201;SDS011;60105;54.956;73.412;2022-09-12T04:12:09;5.90;;;2.10;;
72201;SDS011;60105;54.956;73.412;2022-09-12T04:14:45;5.28;;;2.80;;
72201;SDS011;60105;54.956;73.412;2022-09-12T04:17:12;4.20;;;2.53;;
72201;SDS011;60105;54.956;73.412;2022-09-12T04:19:39;4.95;;;2.05;;
72201;SDS011;60105;54.956;73.412;2022-09-12T04:22:10;6.97;;;2.20;;
72201;SDS011;60105;54.956;73.412;2022-09-12T04:24:41;5.90;;;2.22;;
72201;SDS011;60105;54.956;73.412;2022-09-12T04:27:12;4.65;;;2.58;;
72201;SDS011;60105;54.956;73.412;2022-09-12T04:29:48;4.37;;;2.67;;
72201;SDS011;60105;54.956;73.412;2022-09-12T04:32:20;3.45;;;2.08;;
72201;SDS011;60105;54.956;73.412;2022-09-12T04:34:57;6.63;;;2.88;;
72201;SDS011;60105;54.956;73.412;2022-09-12T04:37:34;5.13;;;2.25;;
72201;SDS011;60105;54.956;73.412;2022-09-12T04:40:00;4.15;;;1.83;;
72201;SDS011;60105;54.956;73.412;2022-09-12T04:42:26;3.57;;;2.23;;
72201;SDS011;60105;54.956;73.412;2022-09-12T04:44:54;6.13;;;1.95;;
72201;SDS011;60105;54.956;73.412;2022-09-12T04:47:20;5.18;;;1.95;;
72201;SDS011;60105;54.956;73.412;2022-09-12T04:49:47;3.72;;;1.60;;
72201;SDS011;60105;54.956;73.412;2022-09-12T04:52:15;3.28;;;1.92;;
72201;SDS011;60105;54.956;73.412;2022-09-12T04:54:41;4.03;;;1.63;;
72201;SDS011;60105;54.956;73.412;2022-09-12T04:57:07;3.72;;;1.60;;
72201;SDS011;60105;54.956;73.412;2022-09-12T04:59:45;3.55;;;1.90;;
72201;SDS011;60105;54.956;73.412;2022-09-12T05:02:11;7.75;;;1.83;;
72201;SDS011;60105;54.956;73.412;2022-09-12T05:04:37;3.47;;;1.70;;
72201;SDS011;60105;54.956;73.412;2022-09-12T05:07:03;2.80;;;1.43;;
72201;SDS011;60105;54.956;73.412;2022-09-12T05:09:30;2.40;;;1.08;;
72201;SDS011;60105;54.956;73.412;2022-09-12T05:11:56;5.38;;;1.90;;
72201;SDS011;60105;54.956;73.412;2022-09-12T05:14:23;3.92;;;1.88;;
72201;SDS011;60105;54.956;73.412;2022-09-12T05:17:00;4.25;;;1.92;;
72201;SDS011;60105;54.956;73.412;2022-09-12T05:19:27;2.77;;;1.40;;
72201;SDS011;60105;54.956;73.412;2022-09-12T05:21:54;3.60;;;1.55;;
72201;SDS011;60105;54.956;73.412;2022-09-12T05:24:20;2.80;;;1.60;;
72201;SDS011;60105;54.956;73.412;2022-09-12T05:26:47;5.00;;;1.90;;
72201;SDS011;60105;54.956;73.412;2022-09-12T05:29:15;9.15;;;2.13;;
72201;SDS011;60105;54.956;73.412;2022-09-12T05:31:45;3.57;;;1.80;;
72201;SDS011;60105;54.956;73.412;2022-09-12T05:34:17;4.03;;;1.70;;
72201;SDS011;60105;54.956;73.412;2022-09-12T05:36:43;3.63;;;2.08;;
72201;SDS011;60105;54.956;73.412;2022-09-12T05:39:10;3.35;;;1.60;;
72201;SDS011;60105;54.956;73.412;2022-09-12T05:41:38;5.28;;;1.60;;
72201;SDS011;60105;54.956;73.412;2022-09-12T05:44:15;2.70;;;1.50;;
72201;SDS011;60105;54.956;73.412;2022-09-12T05:46:42;6.50;;;1.77;;
72201;SDS011;60105;54.956;73.412;2022-09-12T05:49:10;5.32;;;1.90;;
72201;SDS011;60105;54.956;73.412;2022-09-12T05:51:39;4.13;;;2.00;;
72201;SDS011;60105;54.956;73.412;2022-09-12T05:54:13;5.72;;;2.13;;
72201;SDS011;60105;54.956;73.412;2022-09-12T05:56:41;3.67;;;1.60;;
72201;SDS011;60105;54.956;73.412;2022-09-12T05:59:12;5.18;;;1.75;;
72201;SDS011;60105;54.956;73.412;2022-09-12T06:01:40;3.22;;;1.60;;
72201;SDS011;60105;54.956;73.412;2022-09-12T06:04:07;3.20;;;1.85;;
72201;SDS011;60105;54.956;73.412;2022-09-12T06:06:35;3.97;;;1.95;;
72201;SDS011;60105;54.956;73.412;2022-09-12T06:09:04;4.03;;;1.87;;
72201;SDS011;60105;54.956;73.412;2022-09-12T06:11:31;3.30;;;1.80;;
72201;SDS011;60105;54.956;73.412;2022-09-12T06:13:59;3.60;;;1.80;;
72201;SDS011;60105;54.956;73.412;2022-09-12T06:16:27;3.58;;;1.80;;
72201;SDS011;60105;54.956;73.412;2022-09-12T06:19:01;3.63;;;1.85;;
72201;SDS011;60105;54.956;73.412;2022-09-12T06:21:36;3.37;;;1.60;;
72201;SDS011;60105;54.956;73.412;2022-09-12T06:24:09;4.72;;;1.50;;
72201;SDS011;60105;54.956;73.412;2022-09-12T06:26:36;3.40;;;1.90;;
72201;SDS011;60105;54.956;73.412;2022-09-12T06:29:03;3.83;;;1.70;;
72201;SDS011;60105;54.956;73.412;2022-09-12T06:31:30;3.90;;;1.80;;
72201;SDS011;60105;54.956;73.412;2022-09-12T06:33:59;5.33;;;1.60;;
72201;SDS011;60105;54.956;73.412;2022-09-12T06:36:28;2.80;;;1.48;;
72201;SDS011;60105;54.956;73.412;2022-09-12T06:39:05;3.65;;;1.92;;
72201;SDS011;60105;54.956;73.412;2022-09-12T06:41:33;3.08;;;1.85;;
72201;SDS011;60105;54.956;73.412;2022-09-12T06:43:59;3.67;;;2.17;;
72201;SDS011;60105;54.956;73.412;2022-09-12T06:46:29;8.03;;;2.37;;
72201;SDS011;60105;54.956;73.412;2022-09-12T06:48:56;3.55;;;1.67;;
72201;SDS011;60105;54.956;73.412;2022-09-12T06:51:29;4.57;;;2.30;;
72201;SDS011;60105;54.956;73.412;2022-09-12T06:54:05;3.00;;;1.70;;
72201;SDS011;60105;54.956;73.412;2022-09-12T06:56:31;2.95;;;1.65;;
72201;SDS011;60105;54.956;73.412;2022-09-12T06:58:57;5.20;;;1.63;;
72201;SDS011;60105;54.956;73.412;2022-09-12T07:01:30;4.60;;;1.80;;
72201;SDS011;60105;54.956;73.412;2022-09-12T07:03:58;5.75;;;1.58;;
72201;SDS011;60105;54.956;73.412;2022-09-12T07:06:26;4.00;;;1.48;;
72201;SDS011;60105;54.956;73.412;2022-09-12T07:09:00;7.93;;;1.85;;
72201;SDS011;60105;54.956;73.412;2022-09-12T07:11:29;3.20;;;1.60;;
72201;SDS011;60105;54.956;73.412;2022-09-12T07:13:57;8.63;;;2.05;;
72201;SDS011;60105;54.956;73.412;2022-09-12T07:16:24;3.42;;;1.90;;
72201;SDS011;60105;54.956;73.412;2022-09-12T07:18:51;3.05;;;1.50;;
72201;SDS011;60105;54.956;73.412;2022-09-12T07:21:19;3.33;;;1.98;;
72201;SDS011;60105;54.956;73.412;2022-09-12T07:23:45;3.00;;;1.50;;
72201;SDS011;60105;54.956;73.412;2022-09-12T07:26:12;5.13;;;2.03;;
72201;SDS011;60105;54.956;73.412;2022-09-12T07:28:40;5.70;;;1.73;;
72201;SDS011;60105;54.956;73.412;2022-09-12T07:31:16;7.38;;;1.88;;
72201;SDS011;60105;54.956;73.412;2022-09-12T07:33:43;3.67;;;1.90;;
72201;SDS011;60105;54.956;73.412;2022-09-12T07:36:13;8.23;;;1.50;;
72201;SDS011;60105;54.956;73.412;2022-09-12T07:38:41;3.58;;;1.77;;
72201;SDS011;60105;54.956;73.412;2022-09-12T07:41:18;3.58;;;1.60;;
72201;SDS011;60105;54.956;73.412;2022-09-12T07:43:46;3.00;;;1.58;;
72201;SDS011;60105;54.956;73.412;2022-09-12T07:46:19;4.55;;;1.90;;
72201;SDS011;60105;54.956;73.412;2022-09-12T07:48:50;5.60;;;2.00;;
72201;SDS011;60105;54.956;73.412;2022-09-12T07:51:20;3.20;;;1.73;;
72201;SDS011;60105;54.956;73.412;2022-09-12T07:53:48;4.15;;;2.00;;
72201;SDS011;60105;54.956;73.412;2022-09-12T07:56:15;5.03;;;1.90;;
72201;SDS011;60105;54.956;73.412;2022-09-12T07:58:42;2.88;;;1.55;;
72201;SDS011;60105;54.956;73.412;2022-09-12T08:01:10;3.20;;;1.17;;
72201;SDS011;60105;54.956;73.412;2022-09-12T08:03:40;3.90;;;1.90;;
72201;SDS011;60105;54.956;73.412;2022-09-12T08:06:15;4.00;;;1.95;;
72201;SDS011;60105;54.956;73.412;2022-09-12T08:08:46;6.20;;;2.20;;
72201;SDS011;60105;54.956;73.412;2022-09-12T08:11:24;3.05;;;1.85;;
72201;SDS011;60105;54.956;73.412;2022-09-12T08:13:52;4.03;;;1.63;;
72201;SDS011;60105;54.956;73.412;2022-09-12T08:16:20;3.78;;;1.85;;
72201;SDS011;60105;54.956;73.412;2022-09-12T08:18:49;3.85;;;1.75;;
72201;SDS011;60105;54.956;73.412;2022-09-12T08:21:21;3.40;;;2.00;;
72201;SDS011;60105;54.956;73.412;2022-09-12T08:23:56;4.88;;;1.70;;
72201;SDS011;60105;54.956;73.412;2022-09-12T08:26:25;4.53;;;1.30;;
72201;SDS011;60105;54.956;73.412;2022-09-12T08:28:52;3.08;;;1.60;;
72201;SDS011;60105;54.956;73.412;2022-09-12T08:31:23;3.10;;;1.70;;
72201;SDS011;60105;54.956;73.412;2022-09-12T08:33:53;7.97;;;1.80;;
72201;SDS011;60105;54.956;73.412;2022-09-12T08:36:21;3.17;;;1.67;;
72201;SDS011;60105;54.956;73.412;2022-09-12T08:38:50;4.27;;;1.50;;
72201;SDS011;60105;54.956;73.412;2022-09-12T08:47:04;5.53;;;2.10;;
72201;SDS011;60105;54.956;73.412;2022-09-12T08:55:43;3.58;;;1.67;;
72201;SDS011;60105;54.956;73.412;2022-09-12T08:58:16;3.53;;;1.95;;
72201;SDS011;60105;54.956;73.412;2022-09-12T09:06:20;3.67;;;1.93;;
72201;SDS011;60105;54.956;73.412;2022-09-12T09:09:05;5.90;;;1.98;;
72201;SDS011;60105;54.956;73.412;2022-09-12T09:14:56;6.25;;;2.00;;
72201;SDS011;60105;54.956;73.412;2022-09-12T09:17:45;9.32;;;2.17;;
72201;SDS011;60105;54.956;73.412;2022-09-12T09:23:26;4.13;;;2.63;;
72201;SDS011;60105;54.956;73.412;2022-09-12T09:26:05;4.40;;;2.05;;
72201;SDS011;60105;54.956;73.412;2022-09-12T09:28:46;6.95;;;2.40;;
72201;SDS011;60105;54.956;73.412;2022-09-12T09:31:23;5.72;;;2.90;;
72201;SDS011;60105;54.956;73.412;2022-09-12T09:33:51;7.93;;;1.93;;
72201;SDS011;60105;54.956;73.412;2022-09-12T09:42:37;20.42;;;2.97;;
72201;SDS011;60105;54.956;73.412;2022-09-12T09:45:12;6.07;;;2.95;;
72201;SDS011;60105;54.956;73.412;2022-09-12T09:47:51;7.33;;;2.27;;
72201;SDS011;60105;54.956;73.412;2022-09-12T09:50:32;6.30;;;2.28;;
72201;SDS011;60105;54.956;73.412;2022-09-12T09:52:58;7.70;;;2.67;;
72201;SDS011;60105;54.956;73.412;2022-09-12T09:55:38;11.70;;;2.88;;
72201;SDS011;60105;54.956;73.412;2022-09-12T09:58:26;16.77;;;3.08;;
72201;SDS011;60105;54.956;73.412;2022-09-12T10:01:03;9.17;;;3.03;;
72201;SDS011;60105;54.956;73.412;2022-09-12T10:03:37;7.28;;;2.58;;
72201;SDS011;60105;54.956;73.412;2022-09-12T10:08:45;5.78;;;2.20;;
72201;SDS011;60105;54.956;73.412;2022-09-12T10:11:19;8.25;;;2.72;;
72201;SDS011;60105;54.956;73.412;2022-09-12T10:13:55;4.50;;;1.90;;
72201;SDS011;60105;54.956;73.412;2022-09-12T10:18:50;13.00;;;2.45;;
72201;SDS011;60105;54.956;73.412;2022-09-12T10:21:35;7.00;;;2.60;;
72201;SDS011;60105;54.956;73.412;2022-09-12T10:26:49;7.93;;;2.47;;
72201;SDS011;60105;54.956;73.412;2022-09-12T10:29:44;7.10;;;2.15;;
72201;SDS011;60105;54.956;73.412;2022-09-12T10:35:07;13.13;;;2.85;;
72201;SDS011;60105;54.956;73.412;2022-09-12T10:37:40;7.22;;;2.58;;
72201;SDS011;60105;54.956;73.412;2022-09-12T10:40:28;7.70;;;2.40;;
72201;SDS011;60105;54.956;73.412;2022-09-12T10:43:17;9.27;;;2.55;;
72201;SDS011;60105;54.956;73.412;2022-09-12T10:45:57;4.40;;;2.00;;
72201;SDS011;60105;54.956;73.412;2022-09-12T10:48:28;4.85;;;2.13;;
72201;SDS011;60105;54.956;73.412;2022-09-12T10:50:57;3.95;;;2.25;;
72201;SDS011;60105;54.956;73.412;2022-09-12T10:53:40;5.77;;;1.70;;
72201;SDS011;60105;54.956;73.412;2022-09-12T10:56:31;6.95;;;1.60;;
72201;SDS011;60105;54.956;73.412;2022-09-12T10:59:00;5.18;;;2.28;;
72201;SDS011;60105;54.956;73.412;2022-09-12T11:01:54;3.05;;;1.63;;
72201;SDS011;60105;54.956;73.412;2022-09-12T11:10:15;7.47;;;1.75;;
72201;SDS011;60105;54.956;73.412;2022-09-12T11:29:34;12.77;;;2.10;;
72201;SDS011;60105;54.956;73.412;2022-09-12T11:40:44;11.20;;;2.92;;
72201;SDS011;60105;54.956;73.412;2022-09-12T11:51:24;9.05;;;2.38;;
72201;SDS011;60105;54.956;73.412;2022-09-12T11:54:08;5.07;;;2.00;;
72201;SDS011;60105;54.956;73.412;2022-09-12T11:57:13;11.18;;;2.90;;
72201;SDS011;60105;54.956;73.412;2022-09-12T12:02:27;18.53;;;4.03;;
72201;SDS011;60105;54.956;73.412;2022-09-12T12:07:51;18.45;;;3.38;;
72201;SDS011;60105;54.956;73.412;2022-09-12T12:13:21;7.63;;;3.13;;
72201;SDS011;60105;54.956;73.412;2022-09-12T12:15:52;8.73;;;3.23;;
72201;SDS011;60105;54.956;73.412;2022-09-12T12:18:24;10.20;;;3.08;;
72201;SDS011;60105;54.956;73.412;2022-09-12T12:20:55;9.15;;;3.13;;
72201;SDS011;60105;54.956;73.412;2022-09-12T12:23:40;16.75;;;3.70;;
72201;SDS011;60105;54.956;73.412;2022-09-12T12:29:09;12.93;;;2.83;;
72201;SDS011;60105;54.956;73.412;2022-09-12T12:34:30;8.18;;;2.63;;
72201;SDS011;60105;54.956;73.412;2022-09-12T12:48:00;7.80;;;2.35;;
72201;SDS011;60105;54.956;73.412;2022-09-12T12:50:28;6.75;;;2.33;;
72201;SDS011;60105;54.956;73.412;2022-09-12T12:55:51;13.47;;;2.30;;
72201;SDS011;60105;54.956;73.412;2022-09-12T13:01:26;9.75;;;2.38;;
72201;SDS011;60105;54.956;73.412;2022-09-12T13:03:55;6.50;;;2.30;;
72201;SDS011;60105;54.956;73.412;2022-09-12T13:12:01;7.07;;;2.30;;
72201;SDS011;60105;54.956;73.412;2022-09-12T13:17:24;8.55;;;2.35;;
72201;SDS011;60105;54.956;73.412;2022-09-12T13:20:02;6.28;;;2.95;;
72201;SDS011;60105;54.956;73.412;2022-09-12T13:22:45;9.23;;;2.40;;
72201;SDS011;60105;54.956;73.412;2022-09-12T13:28:00;8.95;;;2.88;;
72201;SDS011;60105;54.956;73.412;2022-09-12T13:30:36;20.63;;;3.45;;
72201;SDS011;60105;54.956;73.412;2022-09-12T13:33:08;10.27;;;3.22;;
72201;SDS011;60105;54.956;73.412;2022-09-12T13:41:17;11.65;;;3.45;;
72201;SDS011;60105;54.956;73.412;2022-09-12T13:43:50;16.20;;;3.85;;
72201;SDS011;60105;54.956;73.412;2022-09-12T13:46:24;16.25;;;4.10;;
72201;SDS011;60105;54.956;73.412;2022-09-12T13:48:55;12.03;;;3.50;;
72201;SDS011;60105;54.956;73.412;2022-09-12T13:51:23;14.75;;;3.65;;
72201;SDS011;60105;54.956;73.412;2022-09-12T13:53:53;12.77;;;3.65;;
72201;SDS011;60105;54.956;73.412;2022-09-12T13:56:23;13.30;;;3.70;;
72201;SDS011;60105;54.956;73.412;2022-09-12T13:59:00;22.33;;;3.63;;
72201;SDS011;60105;54.956;73.412;2022-09-12T14:01:38;12.73;;;4.57;;
72201;SDS011;60105;54.956;73.412;2022-09-12T14:04:22;7.53;;;3.65;;
72201;SDS011;60105;54.956;73.412;2022-09-12T14:07:14;14.85;;;4.70;;
72201;SDS011;60105;54.956;73.412;2022-09-12T14:09:53;27.05;;;11.00;;
72201;SDS011;60105;54.956;73.412;2022-09-12T14:12:28;17.35;;;5.15;;
72201;SDS011;60105;54.956;73.412;2022-09-12T14:14:59;26.97;;;12.87;;
72201;SDS011;60105;54.956;73.412;2022-09-12T14:19:57;21.30;;;9.63;;
72201;SDS011;60105;54.956;73.412;2022-09-12T14:22:27;21.33;;;7.68;;
72201;SDS011;60105;54.956;73.412;2022-09-12T14:24:59;25.40;;;9.10;;
72201;SDS011;60105;54.956;73.412;2022-09-12T14:27:34;33.43;;;12.83;;
72201;SDS011;60105;54.956;73.412;2022-09-12T14:40:45;35.20;;;16.30;;
72201;SDS011;60105;54.956;73.412;2022-09-12T14:43:26;36.58;;;16.45;;
72201;SDS011;60105;54.956;73.412;2022-09-12T14:46:01;34.03;;;16.95;;
72201;SDS011;60105;54.956;73.412;2022-09-12T14:48:48;41.05;;;19.15;;
72201;SDS011;60105;54.956;73.412;2022-09-12T14:51:30;59.63;;;26.33;;
72201;SDS011;60105;54.956;73.412;2022-09-12T14:54:05;49.30;;;20.30;;
72201;SDS011;60105;54.956;73.412;2022-09-12T14:56:52;46.72;;;19.58;;
72201;SDS011;60105;54.956;73.412;2022-09-12T15:04:50;43.00;;;17.77;;
72201;SDS011;60105;54.956;73.412;2022-09-12T15:15:53;38.72;;;16.10;;
72201;SDS011;60105;54.956;73.412;2022-09-12T15:18:31;42.03;;;18.27;;
72201;SDS011;60105;54.956;73.412;2022-09-12T15:21:03;47.17;;;19.00;;
72201;SDS011;60105;54.956;73.412;2022-09-12T15:23:44;43.72;;;17.55;;
72201;SDS011;60105;54.956;73.412;2022-09-12T15:26:15;40.33;;;16.92;;
72201;SDS011;60105;54.956;73.412;2022-09-12T15:28:43;37.97;;;17.02;;
72201;SDS011;60105;54.956;73.412;2022-09-12T15:31:21;47.63;;;19.73;;
72201;SDS011;60105;54.956;73.412;2022-09-12T15:33:48;70.63;;;29.57;;
72201;SDS011;60105;54.956;73.412;2022-09-12T15:36:20;100.60;;;46.60;;
72201;SDS011;60105;54.956;73.412;2022-09-12T15:38:48;96.65;;;50.92;;
72201;SDS011;60105;54.956;73.412;2022-09-12T15:41:28;97.63;;;49.88;;
72201;SDS011;60105;54.956;73.412;2022-09-12T15:43:55;98.53;;;50.70;;
72201;SDS011;60105;54.956;73.412;2022-09-12T15:46:22;129.73;;;61.67;;
72201;SDS011;60105;54.956;73.412;2022-09-12T15:48:48;105.18;;;56.45;;
72201;SDS011;60105;54.956;73.412;2022-09-12T15:51:15;110.80;;;57.63;;
72201;SDS011;60105;54.956;73.412;2022-09-12T15:53:53;119.95;;;56.95;;
72201;SDS011;60105;54.956;73.412;2022-09-12T15:56:20;108.05;;;53.30;;
72201;SDS011;60105;54.956;73.412;2022-09-12T15:58:47;102.70;;;48.10;;
72201;SDS011;60105;54.956;73.412;2022-09-12T16:01:15;99.28;;;46.03;;
72201;SDS011;60105;54.956;73.412;2022-09-12T16:03:52;99.07;;;48.05;;
72201;SDS011;60105;54.956;73.412;2022-09-12T16:06:18;93.85;;;47.92;;
72201;SDS011;60105;54.956;73.412;2022-09-12T16:08:45;103.15;;;49.38;;
72201;SDS011;60105;54.956;73.412;2022-09-12T16:11:20;87.90;;;45.37;;
72201;SDS011;60105;54.956;73.412;2022-09-12T16:13:50;85.97;;;42.22;;
72201;SDS011;60105;54.956;73.412;2022-09-12T16:16:17;78.75;;;43.33;;
72201;SDS011;60105;54.956;73.412;2022-09-12T16:18:43;77.45;;;39.38;;
72201;SDS011;60105;54.956;73.412;2022-09-12T16:21:09;79.88;;;38.92;;
72201;SDS011;60105;54.956;73.412;2022-09-12T16:23:36;78.27;;;35.87;;
72201;SDS011;60105;54.956;73.412;2022-09-12T16:26:13;58.92;;;32.05;;
72201;SDS011;60105;54.956;73.412;2022-09-12T16:28:40;76.03;;;35.90;;
72201;SDS011;60105;54.956;73.412;2022-09-12T16:31:07;63.65;;;31.48;;
72201;SDS011;60105;54.956;73.412;2022-09-12T16:33:37;53.50;;;26.70;;
72201;SDS011;60105;54.956;73.412;2022-09-12T16:36:04;51.83;;;24.90;;
72201;SDS011;60105;54.956;73.412;2022-09-12T16:38:39;50.42;;;24.95;;
72201;SDS011;60105;54.956;73.412;2022-09-12T16:41:06;53.50;;;26.05;;
72201;SDS011;60105;54.956;73.412;2022-09-12T16:43:34;45.40;;;23.77;;
72201;SDS011;60105;54.956;73.412;2022-09-12T16:48:33;55.43;;;26.33;;
72201;SDS011;60105;54.956;73.412;2022-09-12T16:51:01;64.22;;;28.25;;
72201;SDS011;60105;54.956;73.412;2022-09-12T16:53:34;60.70;;;29.27;;
72201;SDS011;60105;54.956;73.412;2022-09-12T16:56:02;56.42;;;27.08;;
72201;SDS011;60105;54.956;73.412;2022-09-12T16:58:41;50.55;;;25.20;;
72201;SDS011;60105;54.956;73.412;2022-09-12T17:01:17;48.30;;;25.97;;
72201;SDS011;60105;54.956;73.412;2022-09-12T17:03:46;66.22;;;29.25;;
72201;SDS011;60105;54.956;73.412;2022-09-12T17:06:13;61.10;;;31.38;;
72201;SDS011;60105;54.956;73.412;2022-09-12T17:08:44;71.10;;;33.85;;
72201;SDS011;60105;54.956;73.412;2022-09-12T17:11:20;65.55;;;33.28;;
72201;SDS011;60105;54.956;73.412;2022-09-12T17:14:00;72.83;;;30.97;;
72201;SDS011;60105;54.956;73.412;2022-09-12T17:16:38;63.13;;;30.90;;
72201;SDS011;60105;54.956;73.412;2022-09-12T17:19:07;60.92;;;29.45;;
72201;SDS011;60105;54.956;73.412;2022-09-12T17:21:36;41.30;;;21.95;;
72201;SDS011;60105;54.956;73.412;2022-09-12T17:24:02;43.00;;;20.35;;
72201;SDS011;60105;54.956;73.412;2022-09-12T17:26:29;40.23;;;20.47;;
72201;SDS011;60105;54.956;73.412;2022-09-12T17:28:55;45.63;;;20.10;;
72201;SDS011;60105;54.956;73.412;2022-09-12T17:31:21;43.72;;;20.88;;
72201;SDS011;60105;54.956;73.412;2022-09-12T17:33:48;40.80;;;18.63;;
72201;SDS011;60105;54.956;73.412;2022-09-12T17:36:19;40.15;;;18.95;;
72201;SDS011;60105;54.956;73.412;2022-09-12T17:38:57;29.10;;;16.63;;
72201;SDS011;60105;54.956;73.412;2022-09-12T17:41:25;40.45;;;17.20;;
72201;SDS011;60105;54.956;73.412;2022-09-12T17:43:54;54.05;;;17.20;;
72201;SDS011;60105;54.956;73.412;2022-09-12T17:46:32;31.55;;;16.80;;
72201;SDS011;60105;54.956;73.412;2022-09-12T17:49:00;35.40;;;16.25;;
72201;SDS011;60105;54.956;73.412;2022-09-12T17:51:29;29.90;;;14.87;;
72201;SDS011;60105;54.956;73.412;2022-09-12T17:53:57;35.38;;;15.32;;
72201;SDS011;60105;54.956;73.412;2022-09-12T17:56:26;35.20;;;15.52;;
72201;SDS011;60105;54.956;73.412;2022-09-12T17:59:05;37.75;;;14.15;;
72201;SDS011;60105;54.956;73.412;2022-09-12T18:01:33;27.20;;;12.52;;
72201;SDS011;60105;54.956;73.412;2022-09-12T18:04:18;20.63;;;10.80;;
72201;SDS011;60105;54.956;73.412;2022-09-12T18:06:44;21.17;;;9.45;;
72201;SDS011;60105;54.956;73.412;2022-09-12T18:09:24;16.23;;;9.15;;
72201;SDS011;60105;54.956;73.412;2022-09-12T18:11:55;21.25;;;8.60;;
72201;SDS011;60105;54.956;73.412;2022-09-12T18:14:22;24.38;;;8.88;;
72201;SDS011;60105;54.956;73.412;2022-09-12T18:16:48;13.67;;;8.03;;
72201;SDS011;60105;54.956;73.412;2022-09-12T18:19:14;15.80;;;7.70;;
72201;SDS011;60105;54.956;73.412;2022-09-12T18:21:41;15.70;;;7.75;;
72201;SDS011;60105;54.956;73.412;2022-09-12T18:24:08;12.65;;;7.93;;
72201;SDS011;60105;54.956;73.412;2022-09-12T18:26:35;17.92;;;7.10;;
72201;SDS011;60105;54.956;73.412;2022-09-12T18:29:02;13.63;;;6.73;;
72201;SDS011;60105;54.956;73.412;2022-09-12T18:31:28;19.38;;;7.03;;